createdAt,value
2023-03-16T00:00:33.918Z,2.20
2023-03-16T00:05:36.704Z,2.00
2023-03-16T00:10:46.624Z,2.00
2023-03-16T00:15:51.027Z,1.00
2023-03-16T00:20:55.331Z,2.40
2023-03-16T00:26:02.027Z,2.60
2023-03-16T00:31:05.103Z,1.80
2023-03-16T00:36:09.381Z,2.40
2023-03-16T00:41:14.856Z,1.00
2023-03-16T00:46:18.436Z,2.00
2023-03-16T00:51:22.848Z,1.40
2023-03-16T00:56:29.021Z,1.40
2023-03-16T01:01:32.789Z,1.00
2023-03-16T01:06:35.672Z,2.00
2023-03-16T01:11:42.917Z,3.20
2023-03-16T01:16:46.422Z,2.80
2023-03-16T01:21:49.358Z,3.60
2023-03-16T01:26:54.423Z,2.00
2023-03-16T01:31:57.702Z,2.00
2023-03-16T01:37:00.928Z,2.80
2023-03-16T01:42:17.207Z,1.00
2023-03-16T01:47:20.067Z,2.80
2023-03-16T01:52:24.396Z,1.80
2023-03-16T01:57:30.535Z,1.00
2023-03-16T02:02:33.449Z,1.80
2023-03-16T02:07:39.100Z,1.00
2023-03-16T02:12:43.726Z,1.60
2023-03-16T02:17:48.434Z,1.80
2023-03-16T02:22:55.061Z,2.00
2023-03-16T02:28:04.069Z,1.00
2023-03-16T02:33:09.551Z,1.00
2023-03-16T02:38:12.387Z,2.00
2023-03-16T02:43:23.431Z,1.00
2023-03-16T02:48:45.375Z,0.80
2023-03-16T02:53:48.210Z,1.00
2023-03-16T02:58:51.664Z,1.40
2023-03-16T03:03:57.753Z,2.00
2023-03-16T03:09:01.952Z,1.00
2023-03-16T03:14:05.371Z,1.00
2023-03-16T03:19:09.767Z,1.40
2023-03-16T03:24:13.922Z,1.20
2023-03-16T03:29:16.705Z,1.00
2023-03-16T03:34:20.834Z,1.60
2023-03-16T03:39:23.676Z,1.20
2023-03-16T03:44:27.707Z,2.00
2023-03-16T03:49:32.805Z,2.00
2023-03-16T03:54:35.881Z,2.00
2023-03-16T03:59:43.899Z,0.60
2023-03-16T04:05:17.346Z,1.20
2023-03-16T04:10:21.664Z,2.00
2023-03-16T04:15:24.515Z,1.40
2023-03-16T04:20:49.073Z,1.40
2023-03-16T04:25:56.045Z,2.00
2023-03-16T04:31:02.513Z,1.00
2023-03-16T04:36:12.065Z,1.60
2023-03-16T04:41:15.625Z,2.00
2023-03-16T04:46:27.297Z,1.00
2023-03-16T04:51:32.262Z,1.20
2023-03-16T04:56:44.364Z,3.20
2023-03-16T05:02:01.406Z,1.00
2023-03-16T05:07:05.723Z,1.60
2023-03-16T05:12:13.369Z,1.40
2023-03-16T05:17:16.632Z,1.00
2023-03-16T05:22:23.490Z,1.60
2023-03-16T05:27:53.880Z,1.60
2023-03-16T05:33:21.540Z,1.60
2023-03-16T05:38:29.558Z,3.00
2023-03-16T05:43:34.394Z,1.00
2023-03-16T05:48:37.481Z,1.80
2023-03-16T05:53:42.863Z,1.00
2023-03-16T05:58:53.829Z,2.40
2023-03-16T06:03:58.052Z,1.00
2023-03-16T06:09:05.185Z,0.80
2023-03-16T06:14:08.519Z,1.80
2023-03-16T06:19:12.609Z,1.00
2023-03-16T06:24:17.303Z,1.00
2023-03-16T06:29:20.693Z,1.00
2023-03-16T06:34:23.646Z,1.00
2023-03-16T06:39:27.988Z,2.00
2023-03-16T06:44:31.301Z,1.00
2023-03-16T06:49:44.292Z,1.00
2023-03-16T06:54:58.428Z,0.80
2023-03-16T07:00:03.981Z,1.00
2023-03-16T07:05:07.455Z,1.00
2023-03-16T07:10:13.640Z,1.00
2023-03-16T07:15:16.639Z,1.20
2023-03-16T07:20:21.680Z,1.00
2023-03-16T07:25:27.048Z,1.60
2023-03-16T07:30:31.207Z,1.00
2023-03-16T07:35:34.735Z,1.00
2023-03-16T07:40:40.321Z,2.00
2023-03-16T07:45:50.166Z,1.60
2023-03-16T07:50:54.256Z,11.00
2023-03-16T07:55:59.916Z,9.60
2023-03-16T08:01:02.942Z,13.80
2023-03-16T08:06:06.247Z,9.60
2023-03-16T08:11:11.141Z,8.00
2023-03-16T08:16:25.066Z,10.00
2023-03-16T08:21:28.361Z,7.40
2023-03-16T08:26:32.597Z,8.00
2023-03-16T08:31:35.571Z,9.00
2023-03-16T08:36:46.720Z,118.50
2023-03-16T08:41:52.136Z,138.25
2023-03-16T08:47:05.171Z,201.75
2023-03-16T08:52:10.345Z,239.33
2023-03-16T08:57:14.497Z,361.50
2023-03-16T09:02:17.376Z,373.25
2023-03-16T09:07:20.433Z,399.50
2023-03-16T09:12:25.018Z,411.00
2023-03-16T09:17:28.531Z,373.25
2023-03-16T09:22:31.423Z,355.75
2023-03-16T09:27:36.600Z,345.75
2023-03-16T09:32:39.506Z,320.00
2023-03-16T09:37:45.361Z,310.00
2023-03-16T09:43:03.674Z,300.00
2023-03-16T09:48:09.277Z,288.25
2023-03-16T09:53:17.289Z,261.75
2023-03-16T09:58:22.347Z,273.50
2023-03-16T10:04:05.195Z,263.33
2023-03-16T10:14:54.288Z,258.33
2023-03-16T10:19:58.731Z,233.67
2023-03-16T10:25:05.442Z,248.00
2023-03-16T10:30:19.887Z,229.00
2023-03-16T10:35:41.911Z,155.25
2023-03-16T10:40:44.661Z,158.50
2023-03-16T10:45:49.907Z,148.25
2023-03-16T10:50:53.619Z,154.75
2023-03-16T10:55:58.743Z,142.25
2023-03-16T11:01:03.498Z,135.25
2023-03-16T11:06:07.525Z,131.50
2023-03-16T11:11:11.823Z,121.75
2023-03-16T11:16:24.541Z,119.75
2023-03-16T11:21:36.203Z,111.25
2023-03-16T11:26:40.931Z,111.25
2023-03-16T11:31:49.418Z,106.00
2023-03-16T11:36:54.632Z,109.00
2023-03-16T11:42:02.354Z,104.75
2023-03-16T11:47:13.842Z,104.00
2023-03-16T11:52:20.575Z,104.00
2023-03-16T11:57:32.683Z,99.00
2023-03-16T12:02:47.445Z,102.00
2023-03-16T12:07:54.706Z,97.50
2023-03-16T12:13:03.310Z,100.00
2023-03-16T12:18:13.096Z,97.00
2023-03-16T12:23:22.518Z,92.50
2023-03-16T12:28:25.875Z,91.75
2023-03-16T12:33:37.152Z,92.00
2023-03-16T12:38:44.476Z,90.00
2023-03-16T12:43:57.417Z,93.75
2023-03-16T12:49:02.176Z,87.00
2023-03-16T12:54:06.197Z,80.50
2023-03-16T12:59:11.565Z,82.00
2023-03-16T13:04:17.176Z,83.50
2023-03-16T13:09:22.762Z,82.50
2023-03-16T13:14:38.258Z,79.50
2023-03-16T13:19:44.986Z,77.00
2023-03-16T13:24:52.612Z,76.00
2023-03-16T13:29:59.325Z,74.67
2023-03-16T13:35:03.532Z,74.33
2023-03-16T13:40:19.510Z,70.67
2023-03-16T13:45:23.863Z,66.67
2023-03-16T13:50:28.223Z,68.33
2023-03-16T13:55:32.866Z,66.00
2023-03-16T14:00:36.959Z,66.33
2023-03-16T14:05:41.789Z,62.33
2023-03-16T14:10:45.116Z,68.67
2023-03-16T14:15:47.927Z,64.00
2023-03-16T14:20:53.222Z,59.00
2023-03-16T14:25:56.086Z,58.33
2023-03-16T14:31:03.968Z,63.33
2023-03-16T14:36:18.742Z,58.67
2023-03-16T14:41:24.133Z,62.33
2023-03-16T14:46:29.667Z,60.00
2023-03-16T14:51:34.919Z,58.25
2023-03-16T14:56:38.229Z,57.33
2023-03-16T15:01:41.243Z,57.25
2023-03-16T15:06:45.585Z,57.00
2023-03-16T15:11:49.115Z,56.67
2023-03-16T15:16:52.553Z,52.33
2023-03-16T15:21:57.939Z,51.75
2023-03-16T15:27:00.989Z,55.67
2023-03-16T15:32:04.273Z,52.00
2023-03-16T15:37:12.306Z,52.00
2023-03-16T15:42:16.557Z,47.25
2023-03-16T15:47:19.644Z,50.00
2023-03-16T15:52:27.561Z,54.25
2023-03-16T15:57:31.334Z,49.00
2023-03-16T16:02:34.224Z,47.00
2023-03-16T16:07:38.721Z,52.75
2023-03-16T16:12:41.529Z,50.25
2023-03-16T16:18:01.066Z,51.75
2023-03-16T16:23:10.414Z,42.50
2023-03-16T16:28:15.007Z,47.50
2023-03-16T16:33:25.368Z,51.25
2023-03-16T16:38:30.129Z,39.75
2023-03-16T16:43:34.632Z,45.75
2023-03-16T16:48:38.907Z,50.25
2023-03-16T16:53:43.045Z,39.25
2023-03-16T16:58:46.226Z,44.25
2023-03-16T17:03:49.049Z,44.50
2023-03-16T17:08:55.024Z,43.75
2023-03-16T17:13:59.329Z,43.25
2023-03-16T17:19:02.375Z,43.50
2023-03-16T17:24:07.760Z,37.80
2023-03-16T17:29:14.387Z,39.50
2023-03-16T17:34:18.304Z,34.40
2023-03-16T17:39:23.554Z,38.60
2023-03-16T17:44:34.162Z,37.20
2023-03-16T17:49:36.981Z,32.20
2023-03-16T17:54:41.096Z,32.40
2023-03-16T17:59:43.891Z,33.60
2023-03-16T18:04:46.745Z,39.20
2023-03-16T18:09:50.967Z,35.00
2023-03-16T18:14:58.458Z,32.60
2023-03-16T18:20:01.332Z,30.40
2023-03-16T18:25:10.540Z,30.20
2023-03-16T18:30:14.142Z,28.00
2023-03-16T18:35:17.031Z,28.20
2023-03-16T18:40:21.437Z,23.20
2023-03-16T18:45:24.446Z,29.40
2023-03-16T18:50:28.687Z,26.40
2023-03-16T18:55:33.020Z,31.00
2023-03-16T19:00:36.142Z,25.60
2023-03-16T19:05:39.498Z,27.60
2023-03-16T19:10:46.932Z,23.80
2023-03-16T19:15:50.056Z,26.20
2023-03-16T19:20:53.152Z,23.20
2023-03-16T19:25:58.302Z,25.60
2023-03-16T19:31:01.316Z,22.20
2023-03-16T19:36:04.717Z,21.80
2023-03-16T19:41:20.348Z,22.20
2023-03-16T19:46:23.238Z,20.20
2023-03-16T19:51:29.052Z,22.00
2023-03-16T19:56:33.489Z,24.40
2023-03-16T20:01:36.355Z,21.40
2023-03-16T20:06:39.210Z,19.80
2023-03-16T20:11:43.332Z,17.20
2023-03-16T20:16:47.978Z,21.80
2023-03-16T20:21:50.873Z,21.80
2023-03-16T20:26:55.039Z,22.40
2023-03-16T20:31:57.879Z,19.00
2023-03-16T20:37:01.135Z,19.60
2023-03-16T20:42:05.781Z,18.40
2023-03-16T20:47:11.372Z,19.20
2023-03-16T20:52:17.204Z,17.00
2023-03-16T20:57:22.687Z,18.00
2023-03-16T21:02:43.037Z,20.80
2023-03-16T21:07:46.001Z,18.80
2023-03-16T21:12:51.112Z,16.40
2023-03-16T21:17:57.036Z,16.80
2023-03-16T21:22:59.944Z,17.80
2023-03-16T21:28:04.999Z,22.60
2023-03-16T21:33:13.243Z,13.00
2023-03-16T21:38:17.031Z,15.20
2023-03-16T21:43:21.344Z,17.20
2023-03-16T21:48:25.859Z,12.40
2023-03-16T21:53:30.926Z,14.80
2023-03-16T21:58:35.220Z,15.40
2023-03-16T22:03:50.599Z,14.60
2023-03-16T22:08:54.026Z,15.60
2023-03-16T22:13:58.888Z,12.40
2023-03-16T22:19:01.917Z,15.40
2023-03-16T22:24:05.788Z,16.80
2023-03-16T22:29:25.235Z,13.80
2023-03-16T22:34:30.296Z,14.60
2023-03-16T22:39:36.086Z,14.00
2023-03-16T22:44:40.266Z,15.40
2023-03-16T22:49:43.096Z,13.80
2023-03-16T22:54:46.085Z,11.80
2023-03-16T22:59:50.337Z,12.00
2023-03-16T23:04:53.298Z,10.60
2023-03-16T23:09:56.658Z,11.60
2023-03-16T23:15:01.021Z,14.00
2023-03-16T23:20:04.167Z,13.80
2023-03-16T23:25:07.965Z,14.60
2023-03-16T23:30:20.749Z,11.60
2023-03-16T23:35:24.804Z,10.80
2023-03-16T23:40:29.083Z,11.80
2023-03-16T23:45:34.734Z,10.60
2023-03-16T23:50:37.643Z,13.40
2023-03-16T23:55:41.155Z,10.00
